Flight Track Log - Related Links

Times and Time Zones

All times are in EDT time to prevent confusion due to time zone crossing. See the FAB804 flight status page for this flight to view local times or setup timezone preferences in your user account.


Time Position Orientation Groundspeed Altitude Reporting Facility
EDT Latitude Longitude Course Direction KTS MPH feet Rate Location/Type
Mon 06:58:36 PM 63.8000 -68.5333 33° Northeast 100 115 1,500  Level Montreal Center
Mon 07:00:00 PM 63.8721 -68.4253 33° Northeast  Level FlightAware Approximate
Mon 07:00:36 PM 63.8667 -68.4333 33° Northeast 150 173 3,600  Level Montreal Center
Mon 07:01:36 PM 63.9000 -68.3833 33° Northeast 150 173 4,900 1,250 Climbing Montreal Center
Mon 07:02:36 PM 63.9333 -68.3333 33° Northeast 160 184 6,100 1,350 Climbing Montreal Center
Mon 07:03:36 PM 63.9667 -68.2833 33° Northeast 170 196 7,600 1,260 Climbing Montreal Center
Mon 07:05:00 PM 64.0478 -68.2122 27° Northeast  Level FlightAware Approximate
Mon 07:07:36 PM 64.1667 -68.0833 27° Northeast 180 207 12,400  Level Montreal Center
Mon 07:08:36 PM 64.2167 -68.0333 24° Northeast 190 219 13,400 1,050 Climbing Montreal Center
Mon 07:09:36 PM 64.2500 -67.9833 33° Northeast 200 230 14,500 1,050 Climbing Montreal Center
Mon 07:10:36 PM 64.3000 -67.9333 23° Northeast 200 230 15,500 1,029 Climbing Montreal Center
Mon 07:11:21 PM 64.2833 -67.7333 101° East 210 242 16,300 1,029 Climbing Edmonton Center
Mon 07:12:00 PM 64.4373 -67.7823 27° Northeast  Level FlightAware Approximate
Mon 07:12:21 PM 64.3333 -67.6833 23° Northeast 210 242 17,300  Level Edmonton Center
Mon 07:13:36 PM 64.4500 -67.7667 343° North 210 242 18,800 756 Climbing Montreal Center
Mon 07:14:36 PM 64.5167 -67.6833 28° Northeast 230 265 19,000 100 Climbing Montreal Center
Mon 07:15:36 PM 64.5667 -67.6167 30° Northeast 250 288 19,000  Level Montreal Center
Mon 07:16:36 PM 64.6500 -67.5500 19° North 270 311 19,000  Level Montreal Center
Mon 07:17:36 PM 64.7167 -67.5000 18° North 280 322 19,000  Level Montreal Center
Mon 07:18:36 PM 64.8000 -67.4333 19° North 280 322 19,000  Level Montreal Center
Mon 07:19:36 PM 64.8667 -67.3833 18° North 280 322 19,000  Level Montreal Center
Mon 07:21:00 PM 64.9568 -67.2716 25° Northeast  Level Estimated
Mon 07:22:36 PM 65.0833 -67.1833 25° Northeast 280 322 19,000  Level Montreal Center
Mon 07:23:36 PM 65.1500 -67.1333 17° North 280 322 19,000  Level Montreal Center
Mon 07:24:36 PM 65.2333 -67.0667 19° North 280 322 19,000  Level Montreal Center
Mon 07:25:21 PM 65.2167 -66.8333 100° East 280 322 19,000  Level Edmonton Center
Mon 07:25:36 PM 65.3000 -67.0000 320° Northwest 280 322 19,000  Level Montreal Center
Mon 07:26:36 PM 65.3667 -66.9333 23° Northeast 280 322 19,000  Level Montreal Center
Mon 07:28:00 PM 65.4109 -66.7130 64° Northeast  Level FlightAware Approximate
Mon 07:29:36 PM 65.5833 -66.7500 64° Northeast 280 322 19,000  Level Montreal Center
Mon 07:31:00 PM 65.6621 -66.6032 38° Northeast  Level FlightAware Approximate
Mon 07:38:00 PM 65.9946 -65.9705 38° Northeast  Level FlightAware Approximate
Mon 07:39:00 PM 66.0418 -65.8788 38° Northeast  Level FlightAware Approximate
Mon 07:40:00 PM 66.0891 -65.7867 38° Northeast  Level FlightAware Approximate
Mon 07:41:00 PM 66.1333 -65.7000 37° Northeast  Level FlightAware Approximate
Mon 07:42:00 PM 66.1450 -65.7136 37° Northeast  Level Estimated
Mon 07:43:00 PM 66.1450 -65.7136 37° Northeast  Level Estimated
Mon 07:44:00 PM 66.1450 -65.7136 37° Northeast  Level Estimated
Mon 07:45:00 PM 66.1450 -65.7136 37° Northeast  Level Estimated
Mon 07:46:00 PM 66.1450 -65.7136 37° Northeast  Level Estimated
Mon 07:47:00 PM 66.1450 -65.7136 37° Northeast  Level Estimated
Mon 07:48:00 PM 66.1450 -65.7136 37° Northeast  Level Estimated
Mon 07:49:00 PM 66.1450 -65.7136 37° Northeast  Level Estimated
Mon 07:50:00 PM 66.1450 -65.7136 37° Northeast  Level Estimated
Mon 07:51:00 PM 66.1450 -65.7136 37° Northeast  Level Estimated
Mon 07:52:00 PM 66.1450 -65.7136 37° Northeast  Level Estimated
Mon 07:53:00 PM 66.1450 -65.7136 37° Northeast  Level Estimated
Mon 07:54:00 PM 66.1450 -65.7136 37° Northeast  Level Estimated
Mon 07:55:00 PM 66.1450 -65.7136 37° Northeast  Level Estimated
Mon 07:56:00 PM 66.1450 -65.7136 37° Northeast  Level Estimated
Mon 07:57:00 PM 66.1450 -65.7136 37° Northeast  Level Estimated

Login

Don't have an account? Register now (free) for customized features, flight alerts, and more!